createdAt,value
2018-12-26T00:01:07.154Z,72.23
2018-12-26T00:03:36.555Z,72.27
2018-12-26T00:06:05.888Z,72.74
2018-12-26T00:08:35.234Z,72.74
2018-12-26T00:11:04.554Z,72.99
2018-12-26T00:13:33.907Z,72.57
2018-12-26T00:16:02.529Z,72.03
2018-12-26T00:18:31.183Z,77.30
2018-12-26T00:20:59.691Z,72.45
2018-12-26T00:23:29.009Z,72.49
2018-12-26T00:26:01.794Z,73.03
2018-12-26T00:28:47.630Z,76.68
2018-12-26T00:31:16.950Z,71.36
2018-12-26T00:33:46.277Z,71.86
2018-12-26T00:36:14.784Z,73.31
2018-12-26T00:38:43.306Z,70.91
2018-12-26T00:41:12.619Z,70.84
2018-12-26T00:43:41.240Z,71.02
2018-12-26T00:46:10.556Z,72.28
2018-12-26T00:48:39.993Z,71.67
2018-12-26T00:51:08.532Z,71.76
2018-12-26T00:53:37.865Z,71.63
2018-12-26T00:56:10.589Z,71.36
2018-12-26T00:58:56.403Z,71.93
2018-12-26T01:01:24.916Z,74.39
2018-12-26T01:03:53.562Z,70.81
2018-12-26T01:06:22.893Z,71.42
2018-12-26T01:08:52.759Z,71.35
2018-12-26T01:11:22.094Z,72.32
2018-12-26T01:13:51.422Z,70.84
2018-12-26T01:16:20.729Z,72.29
2018-12-26T01:18:50.055Z,69.91
2018-12-26T01:21:19.396Z,70.02
2018-12-26T01:23:48.723Z,69.89
2018-12-26T01:26:19.271Z,70.86
2018-12-26T01:29:06.398Z,70.20
2018-12-26T01:31:34.932Z,69.67
2018-12-26T01:34:04.250Z,69.26
2018-12-26T01:36:44.136Z,69.45
2018-12-26T01:39:13.446Z,70.03
2018-12-26T01:41:42.772Z,69.40
2018-12-26T01:44:12.099Z,69.48
2018-12-26T01:46:41.404Z,74.92
2018-12-26T01:49:10.739Z,70.20
2018-12-26T01:51:40.067Z,69.73
2018-12-26T01:54:08.587Z,71.91
2018-12-26T01:56:37.106Z,72.79
2018-12-26T01:59:07.024Z,69.76
2018-12-26T02:01:55.691Z,72.42
2018-12-26T02:04:25.026Z,75.49
2018-12-26T02:06:54.381Z,71.12
2018-12-26T02:09:23.713Z,71.51
2018-12-26T02:11:53.042Z,71.78
2018-12-26T02:14:22.440Z,71.38
2018-12-26T02:16:51.879Z,71.08
2018-12-26T02:19:21.366Z,73.23
2018-12-26T02:21:49.894Z,71.25
2018-12-26T02:24:18.409Z,71.23
2018-12-26T02:26:47.722Z,71.98
2018-12-26T02:29:17.068Z,75.76
2018-12-26T02:31:46.399Z,71.36
2018-12-26T02:34:15.705Z,74.14
2018-12-26T02:36:45.027Z,70.74
2018-12-26T02:39:14.334Z,70.81
2018-12-26T02:41:43.686Z,70.70
2018-12-26T02:44:12.098Z,75.59
2018-12-26T02:46:40.635Z,71.68
2018-12-26T02:49:09.963Z,71.40
2018-12-26T02:51:39.273Z,70.84
2018-12-26T02:54:08.620Z,75.97
2018-12-26T02:56:46.141Z,70.76
2018-12-26T02:59:27.282Z,71.17
2018-12-26T03:01:56.593Z,70.86
2018-12-26T03:04:25.909Z,73.89
2018-12-26T03:06:55.244Z,72.37
2018-12-26T03:09:24.618Z,77.45
2018-12-26T03:11:53.921Z,71.14
2018-12-26T03:14:22.437Z,72.34
2018-12-26T03:16:51.783Z,71.04
2018-12-26T03:19:21.110Z,71.56
2018-12-26T03:21:50.426Z,71.97
2018-12-26T03:24:19.764Z,70.11
2018-12-26T03:26:56.029Z,70.60
2018-12-26T03:29:38.365Z,74.95
2018-12-26T03:32:07.690Z,71.26
2018-12-26T03:34:37.022Z,72.54
2018-12-26T03:37:05.560Z,71.24
2018-12-26T03:39:34.164Z,71.13
2018-12-26T03:42:03.614Z,71.29
2018-12-26T03:50:37.410Z,73.99
2018-12-26T03:53:06.719Z,72.07
2018-12-26T03:55:35.233Z,71.64
2018-12-26T03:58:04.564Z,74.39
2018-12-26T04:00:34.010Z,71.72
2018-12-26T04:03:03.351Z,72.41
2018-12-26T04:05:32.656Z,72.72
2018-12-26T04:08:01.967Z,72.86
2018-12-26T04:10:31.372Z,77.23
2018-12-26T04:13:00.696Z,76.41
2018-12-26T04:15:29.515Z,71.81
2018-12-26T04:17:57.959Z,72.76
2018-12-26T04:20:27.468Z,72.15
2018-12-26T04:22:57.234Z,72.48
2018-12-26T04:28:09.622Z,73.19
2018-12-26T04:30:38.960Z,77.42
2018-12-26T04:33:07.495Z,72.77
2018-12-26T04:35:36.827Z,73.17
2018-12-26T04:38:06.158Z,72.59
2018-12-26T04:40:35.495Z,73.56
2018-12-26T04:43:04.821Z,74.99
2018-12-26T04:45:34.149Z,73.13
2018-12-26T04:48:03.526Z,73.21
2018-12-26T04:50:32.837Z,75.16
2018-12-26T04:53:02.180Z,73.87
2018-12-26T04:55:30.757Z,75.52
2018-12-26T04:57:59.183Z,75.76
2018-12-26T05:00:31.070Z,76.73
2018-12-26T05:03:00.374Z,76.80
2018-12-26T05:05:29.902Z,76.91
2018-12-26T05:07:58.411Z,77.00
2018-12-26T05:10:27.717Z,76.72
2018-12-26T05:12:57.143Z,76.50
2018-12-26T05:15:26.467Z,76.48
2018-12-26T05:17:55.776Z,76.68
2018-12-26T05:20:25.189Z,77.76
2018-12-26T05:22:54.497Z,76.70
2018-12-26T05:25:23.025Z,76.68
2018-12-26T05:27:51.468Z,76.32
2018-12-26T05:30:20.798Z,76.98
2018-12-26T05:32:50.121Z,76.31
2018-12-26T05:35:19.477Z,75.84
2018-12-26T05:37:48.801Z,75.90
2018-12-26T05:40:18.137Z,75.67
2018-12-26T05:42:47.465Z,75.63
2018-12-26T05:45:16.783Z,75.79
2018-12-26T05:47:45.408Z,75.73
2018-12-26T05:50:13.825Z,75.83
2018-12-26T05:52:43.145Z,77.18
2018-12-26T05:55:12.459Z,78.29
2018-12-26T05:57:42.864Z,75.48
2018-12-26T06:00:30.988Z,75.96
2018-12-26T06:03:00.306Z,76.07
2018-12-26T06:05:29.641Z,77.29
2018-12-26T06:07:58.985Z,77.06
2018-12-26T06:10:28.303Z,78.01
2018-12-26T06:12:56.826Z,77.19
2018-12-26T06:15:26.145Z,78.84
2018-12-26T06:17:55.461Z,76.65
2018-12-26T06:20:24.802Z,77.29
2018-12-26T06:22:54.129Z,76.79
2018-12-26T06:25:23.445Z,76.15
2018-12-26T06:27:52.874Z,78.42
2018-12-26T06:30:22.193Z,75.80
2018-12-26T06:32:51.852Z,74.81
2018-12-26T06:35:21.166Z,74.25
2018-12-26T06:37:50.477Z,75.07
2018-12-26T06:40:19.798Z,77.49
2018-12-26T06:42:48.307Z,74.34
2018-12-26T06:45:16.856Z,74.34
2018-12-26T06:47:46.161Z,74.93
2018-12-26T06:50:15.507Z,74.89
2018-12-26T06:52:44.824Z,74.65
2018-12-26T06:55:14.150Z,75.13
2018-12-26T06:57:43.478Z,73.83
2018-12-26T07:00:12.911Z,73.46
2018-12-26T07:02:42.232Z,75.97
2018-12-26T07:05:10.649Z,73.02
2018-12-26T07:07:39.178Z,74.64
2018-12-26T07:10:07.806Z,72.54
2018-12-26T07:12:37.133Z,72.47
2018-12-26T07:15:06.714Z,72.95
2018-12-26T07:17:36.109Z,72.41
2018-12-26T07:20:05.515Z,73.19
2018-12-26T07:22:34.838Z,72.32
2018-12-26T07:25:04.325Z,72.89
2018-12-26T07:27:33.657Z,71.95
2018-12-26T07:30:02.209Z,72.51
2018-12-26T07:32:30.726Z,73.83
2018-12-26T07:34:59.326Z,72.82
2018-12-26T07:37:28.651Z,72.24
2018-12-26T07:39:57.957Z,71.83
2018-12-26T07:42:27.293Z,72.64
2018-12-26T07:44:56.607Z,73.71
2018-12-26T07:47:25.957Z,70.52
2018-12-26T07:49:54.526Z,73.75
2018-12-26T07:52:23.858Z,73.43
2018-12-26T07:54:53.173Z,70.00
2018-12-26T07:57:21.702Z,71.19
2018-12-26T07:59:51.037Z,69.23
2018-12-26T08:02:20.380Z,70.38
2018-12-26T08:04:49.714Z,69.04
2018-12-26T08:07:19.071Z,69.16
2018-12-26T08:09:47.573Z,69.33
2018-12-26T08:12:16.900Z,70.18
2018-12-26T08:14:46.231Z,68.14
2018-12-26T08:17:14.663Z,67.89
2018-12-26T08:19:44.049Z,71.23
2018-12-26T08:22:12.583Z,67.46
2018-12-26T08:24:41.926Z,67.97
2018-12-26T08:27:11.270Z,68.02
2018-12-26T08:29:40.590Z,67.46
2018-12-26T08:32:09.929Z,67.00
2018-12-26T08:34:39.269Z,68.07
2018-12-26T08:37:07.659Z,67.67
2018-12-26T08:39:36.181Z,66.80
2018-12-26T08:42:05.504Z,67.55
2018-12-26T08:44:34.835Z,68.45
2018-12-26T08:47:04.157Z,67.06
2018-12-26T08:49:33.493Z,66.51
2018-12-26T08:52:02.812Z,66.88
2018-12-26T08:54:32.146Z,66.04
2018-12-26T08:57:01.484Z,65.53
2018-12-26T08:59:30.805Z,65.62
2018-12-26T09:02:00.139Z,65.98
2018-12-26T09:04:28.619Z,65.54
2018-12-26T09:06:57.139Z,64.69
2018-12-26T09:09:26.446Z,67.30
2018-12-26T09:14:49.295Z,64.12
2018-12-26T09:17:17.918Z,64.08
2018-12-26T09:19:47.228Z,63.36
2018-12-26T09:22:16.548Z,64.24
2018-12-26T09:24:45.862Z,64.09
2018-12-26T09:27:15.208Z,64.16
2018-12-26T09:29:44.664Z,62.88
2018-12-26T09:32:14.091Z,62.93
2018-12-26T09:34:43.409Z,64.24
2018-12-26T09:37:11.932Z,64.27
2018-12-26T09:39:40.367Z,64.77
2018-12-26T09:42:09.682Z,66.44
2018-12-26T09:44:39.022Z,64.82
2018-12-26T09:47:08.346Z,67.54
2018-12-26T09:49:37.675Z,63.93
2018-12-26T09:52:06.990Z,62.43
2018-12-26T09:54:36.314Z,65.41
2018-12-26T09:57:05.639Z,62.78
2018-12-26T09:59:35.022Z,62.38
2018-12-26T10:05:07.602Z,62.30
2018-12-26T10:10:29.883Z,65.49
2018-12-26T10:12:59.208Z,62.18
2018-12-26T10:15:28.527Z,62.16
2018-12-26T10:17:57.950Z,64.20
2018-12-26T10:20:27.292Z,61.17
2018-12-26T10:22:56.633Z,61.95
2018-12-26T10:25:25.953Z,62.72
2018-12-26T10:27:55.261Z,65.22
2018-12-26T10:30:23.816Z,59.74
2018-12-26T10:32:52.342Z,59.49
2018-12-26T10:35:21.686Z,59.33
2018-12-26T10:37:51.007Z,60.97
2018-12-26T10:40:20.321Z,58.89
2018-12-26T10:42:49.659Z,57.88
2018-12-26T10:45:18.982Z,58.51
2018-12-26T10:47:48.325Z,56.04
2018-12-26T10:50:16.940Z,55.55
2018-12-26T10:52:45.578Z,61.00
2018-12-26T10:55:14.013Z,55.51
2018-12-26T10:57:43.335Z,58.24
2018-12-26T11:00:13.379Z,55.60
2018-12-26T11:02:42.733Z,55.61
2018-12-26T11:05:12.060Z,55.28
2018-12-26T11:07:41.398Z,53.66
2018-12-26T11:10:10.724Z,54.06
2018-12-26T11:12:40.035Z,53.33
2018-12-26T11:15:09.704Z,53.25
2018-12-26T11:17:38.273Z,55.92
2018-12-26T11:20:10.590Z,53.91
2018-12-26T11:22:39.236Z,53.14
2018-12-26T11:25:07.796Z,55.43
2018-12-26T11:27:37.126Z,54.16
2018-12-26T11:30:06.694Z,56.28
2018-12-26T11:32:35.364Z,53.96
2018-12-26T11:35:04.941Z,54.12
2018-12-26T11:37:34.501Z,54.52
2018-12-26T11:40:05.256Z,58.82
2018-12-26T11:42:33.789Z,52.01
2018-12-26T11:47:46.052Z,55.51
2018-12-26T11:50:15.402Z,53.43
2018-12-26T11:52:44.886Z,52.06
2018-12-26T11:55:14.238Z,51.82
2018-12-26T11:57:43.603Z,52.24
2018-12-26T12:00:12.965Z,52.92
2018-12-26T12:02:41.539Z,52.74
2018-12-26T12:05:10.859Z,54.73
2018-12-26T12:07:39.373Z,53.12
2018-12-26T12:10:08.694Z,52.96
2018-12-26T12:12:38.024Z,53.50
2018-12-26T12:15:07.460Z,53.30
2018-12-26T12:17:36.786Z,56.00
2018-12-26T12:20:08.073Z,56.47
2018-12-26T12:22:36.813Z,59.22
2018-12-26T12:25:06.144Z,57.52
2018-12-26T12:27:34.659Z,57.04
2018-12-26T12:30:04.311Z,59.16
2018-12-26T12:32:32.970Z,55.03
2018-12-26T12:38:05.002Z,54.87
2018-12-26T12:40:33.827Z,54.05
2018-12-26T12:43:02.365Z,55.52
2018-12-26T12:45:31.670Z,58.04
2018-12-26T12:48:00.993Z,56.81
2018-12-26T12:50:41.978Z,55.08
2018-12-26T12:53:10.597Z,57.21
2018-12-26T12:55:41.946Z,56.26
2018-12-26T13:01:12.462Z,55.35
2018-12-26T13:03:46.552Z,54.70
2018-12-26T13:06:31.034Z,56.38
2018-12-26T13:09:19.731Z,55.10
2018-12-26T13:11:49.074Z,54.43
2018-12-26T13:14:18.394Z,54.97
2018-12-26T13:16:47.711Z,54.41
2018-12-26T13:19:16.218Z,54.79
2018-12-26T13:21:44.742Z,56.29
2018-12-26T13:24:13.258Z,55.97
2018-12-26T13:26:42.596Z,55.44
2018-12-26T13:29:12.050Z,54.40
2018-12-26T13:31:41.371Z,55.33
2018-12-26T13:34:10.759Z,55.29
2018-12-26T13:36:40.085Z,55.95
2018-12-26T13:39:09.520Z,53.93
2018-12-26T13:41:38.847Z,55.07
2018-12-26T13:44:07.366Z,55.23
2018-12-26T13:46:35.992Z,55.29
2018-12-26T13:49:05.322Z,55.88
2018-12-26T13:51:33.834Z,54.84
2018-12-26T13:54:03.146Z,54.44
2018-12-26T13:56:32.477Z,55.59
2018-12-26T13:59:01.802Z,55.82
2018-12-26T14:01:31.135Z,55.46
2018-12-26T14:04:00.454Z,57.22
2018-12-26T14:06:28.871Z,57.38
2018-12-26T14:08:58.182Z,57.14
2018-12-26T14:11:26.706Z,62.38
2018-12-26T14:13:56.048Z,57.54
2018-12-26T14:16:24.706Z,58.22
2018-12-26T14:18:54.033Z,59.21
2018-12-26T14:21:23.349Z,59.68
2018-12-26T14:23:52.682Z,59.42
2018-12-26T14:26:21.995Z,60.35
2018-12-26T14:28:51.314Z,61.44
2018-12-26T14:31:19.969Z,61.22
2018-12-26T14:33:48.698Z,62.28
2018-12-26T14:36:17.779Z,61.44
2018-12-26T14:38:47.097Z,61.36
2018-12-26T14:41:16.431Z,65.15
2018-12-26T14:43:45.758Z,64.27
2018-12-26T14:46:15.094Z,63.18
2018-12-26T14:48:43.821Z,63.34
2018-12-26T14:51:12.446Z,64.36
2018-12-26T14:53:41.978Z,65.22
2018-12-26T14:56:11.315Z,65.03
2018-12-26T14:58:39.754Z,64.86
2018-12-26T15:01:09.064Z,65.92
2018-12-26T15:03:38.377Z,66.20
2018-12-26T15:06:07.685Z,65.46
2018-12-26T15:08:37.011Z,67.79
2018-12-26T15:11:06.330Z,66.08
2018-12-26T15:13:35.675Z,66.63
2018-12-26T15:16:05.039Z,67.24
2018-12-26T15:18:33.655Z,66.97
2018-12-26T15:21:02.978Z,69.41
2018-12-26T15:23:31.489Z,67.36
2018-12-26T15:26:00.813Z,67.85
2018-12-26T15:28:30.130Z,67.47
2018-12-26T15:30:59.475Z,68.13
2018-12-26T15:33:28.793Z,68.80
2018-12-26T15:35:58.138Z,69.92
2018-12-26T15:38:26.656Z,70.13
2018-12-26T15:40:55.195Z,69.37
2018-12-26T15:43:24.547Z,69.49
2018-12-26T15:45:53.187Z,69.40
2018-12-26T15:48:22.502Z,71.69
2018-12-26T15:50:51.830Z,70.34
2018-12-26T15:53:21.169Z,69.50
2018-12-26T15:55:50.485Z,70.05
2018-12-26T15:58:19.816Z,71.36
2018-12-26T16:00:48.443Z,70.80
2018-12-26T16:03:17.753Z,70.72
2018-12-26T16:05:46.191Z,70.48
2018-12-26T16:08:14.713Z,71.53
2018-12-26T16:10:44.060Z,71.76
2018-12-26T16:13:13.394Z,71.35
2018-12-26T16:15:42.776Z,71.35
2018-12-26T16:18:12.086Z,70.80
2018-12-26T16:20:41.428Z,73.09
2018-12-26T16:23:10.754Z,71.74
2018-12-26T16:25:40.107Z,71.26
2018-12-26T16:28:09.434Z,72.03
2018-12-26T16:30:45.942Z,71.12
2018-12-26T16:33:27.530Z,71.31
2018-12-26T16:35:56.890Z,70.46
2018-12-26T16:38:26.263Z,71.34
2018-12-26T16:40:55.596Z,71.61
2018-12-26T16:43:24.934Z,71.43
2018-12-26T16:45:54.274Z,71.56
2018-12-26T16:48:23.589Z,71.38
2018-12-26T16:50:52.934Z,71.12
2018-12-26T16:53:21.344Z,72.24
2018-12-26T16:55:50.666Z,73.27
2018-12-26T16:58:19.084Z,72.48
2018-12-26T17:00:55.038Z,71.37
2018-12-26T17:03:37.639Z,71.43
2018-12-26T17:06:07.004Z,71.19
2018-12-26T17:08:36.312Z,71.71
2018-12-26T17:11:05.669Z,75.46
2018-12-26T17:13:34.982Z,72.50
2018-12-26T17:16:04.289Z,71.40
2018-12-26T17:18:33.598Z,71.63
2018-12-26T17:21:02.310Z,72.32
2018-12-26T17:23:30.943Z,72.35
2018-12-26T17:26:00.286Z,71.62
2018-12-26T17:28:29.597Z,72.06
2018-12-26T17:31:04.156Z,72.12
2018-12-26T17:33:48.182Z,72.13
2018-12-26T17:36:17.529Z,74.65
2018-12-26T17:38:46.855Z,72.74
2018-12-26T17:41:16.183Z,73.41
2018-12-26T17:43:45.498Z,72.76
2018-12-26T17:46:14.044Z,72.38
2018-12-26T17:48:43.360Z,72.60
2018-12-26T17:51:16.206Z,72.78
2018-12-26T17:54:24.260Z,72.75
2018-12-26T17:57:31.514Z,72.76
2018-12-26T18:00:25.276Z,72.47
2018-12-26T18:02:54.593Z,75.29
2018-12-26T18:05:23.209Z,75.88
2018-12-26T18:07:52.557Z,74.26
2018-12-26T18:10:21.900Z,73.19
2018-12-26T18:12:51.241Z,74.70
2018-12-26T18:15:20.541Z,73.67
2018-12-26T18:20:43.510Z,73.13
2018-12-26T18:23:12.850Z,73.83
2018-12-26T18:25:42.187Z,73.42
2018-12-26T18:28:11.556Z,75.08
2018-12-26T18:30:40.085Z,73.49
2018-12-26T18:33:09.425Z,74.29
2018-12-26T18:36:16.673Z,74.69
2018-12-26T18:38:45.214Z,74.64
2018-12-26T18:41:14.555Z,75.27
2018-12-26T18:43:43.879Z,75.81
2018-12-26T18:46:13.199Z,77.72
2018-12-26T18:48:42.548Z,76.10
2018-12-26T18:51:11.861Z,76.23
2018-12-26T18:53:41.196Z,79.39
2018-12-26T18:56:09.649Z,77.83
2018-12-26T18:58:38.485Z,77.91
2018-12-26T19:01:07.023Z,76.82
2018-12-26T19:03:36.349Z,78.33
2018-12-26T19:06:05.718Z,76.81
2018-12-26T19:08:35.029Z,78.42
2018-12-26T19:11:04.376Z,76.06
2018-12-26T19:13:33.712Z,76.58
2018-12-26T19:16:03.044Z,76.06
2018-12-26T19:18:32.340Z,76.41
2018-12-26T19:21:00.865Z,76.26
2018-12-26T19:23:29.382Z,77.59
2018-12-26T19:25:58.736Z,76.87
2018-12-26T19:28:28.062Z,77.88
2018-12-26T19:30:57.392Z,77.55
2018-12-26T19:33:26.720Z,78.01
2018-12-26T19:35:56.064Z,78.33
2018-12-26T19:38:24.677Z,78.24
2018-12-26T19:40:54.018Z,77.85
2018-12-26T19:43:22.679Z,78.47
2018-12-26T19:45:52.022Z,78.43
2018-12-26T19:48:21.352Z,78.79
2018-12-26T19:50:49.875Z,78.77
2018-12-26T19:53:19.203Z,79.04
2018-12-26T19:55:48.534Z,79.01
2018-12-26T19:58:17.895Z,80.20
2018-12-26T20:00:47.246Z,79.10
2018-12-26T20:03:16.602Z,79.03
2018-12-26T20:05:45.937Z,78.85
2018-12-26T20:08:14.449Z,80.14
2018-12-26T20:10:43.370Z,79.20
2018-12-26T20:13:12.818Z,82.15
2018-12-26T20:15:42.687Z,79.62
2018-12-26T20:18:12.024Z,79.50
2018-12-26T20:20:41.338Z,79.14
2018-12-26T20:23:10.662Z,79.49
2018-12-26T20:25:39.970Z,80.39
2018-12-26T20:28:09.307Z,80.17
2018-12-26T20:30:38.632Z,80.33
2018-12-26T20:33:07.972Z,79.63
2018-12-26T20:35:37.305Z,79.82
2018-12-26T20:38:05.857Z,79.52
2018-12-26T20:40:35.186Z,80.13
2018-12-26T20:43:03.725Z,86.28
2018-12-26T20:45:33.149Z,82.09
2018-12-26T20:48:02.518Z,81.47
2018-12-26T20:50:31.906Z,81.38
2018-12-26T20:53:01.193Z,80.97
2018-12-26T20:55:30.525Z,80.26
2018-12-26T20:57:59.844Z,81.83
2018-12-26T21:00:29.164Z,80.06
2018-12-26T21:02:57.789Z,80.05
2018-12-26T21:05:26.224Z,81.69
2018-12-26T21:07:55.562Z,80.27
2018-12-26T21:10:24.893Z,80.20
2018-12-26T21:12:54.229Z,80.44
2018-12-26T21:15:23.541Z,80.86
2018-12-26T21:17:52.879Z,80.86
2018-12-26T21:20:22.202Z,80.56
2018-12-26T21:22:51.519Z,80.13
2018-12-26T21:25:20.842Z,80.07
2018-12-26T21:27:49.386Z,80.11
2018-12-26T21:30:18.015Z,80.16
2018-12-26T21:32:47.350Z,80.20
2018-12-26T21:35:16.665Z,80.02
2018-12-26T21:37:46.019Z,81.62
2018-12-26T21:40:15.351Z,80.12
2018-12-26T21:42:44.669Z,80.50
2018-12-26T21:45:14.014Z,80.40
2018-12-26T21:47:43.332Z,80.48
2018-12-26T21:50:12.685Z,81.47
2018-12-26T21:52:42.025Z,79.69
2018-12-26T21:55:10.548Z,80.38
2018-12-26T21:57:39.079Z,80.63
2018-12-26T22:00:08.972Z,79.54
2018-12-26T22:02:38.293Z,79.16
2018-12-26T22:05:07.629Z,80.81
2018-12-26T22:07:36.956Z,78.74
2018-12-26T22:10:06.328Z,78.81
2018-12-26T22:12:35.672Z,78.77
2018-12-26T22:15:05.326Z,79.59
2018-12-26T22:17:34.047Z,79.53
2018-12-26T22:20:02.571Z,78.70
2018-12-26T22:22:31.191Z,79.07
2018-12-26T22:25:00.506Z,78.60
2018-12-26T22:27:29.858Z,79.57
2018-12-26T22:29:59.167Z,78.82
2018-12-26T22:32:30.715Z,78.68
2018-12-26T22:35:17.738Z,78.37
2018-12-26T22:37:47.066Z,78.51
2018-12-26T22:40:16.407Z,78.05
2018-12-26T22:42:44.938Z,78.67
2018-12-26T22:45:14.261Z,77.90
2018-12-26T22:47:42.891Z,78.04
2018-12-26T22:50:12.220Z,77.96
2018-12-26T22:52:41.555Z,77.94
2018-12-26T22:55:10.895Z,77.42
2018-12-26T22:57:40.224Z,77.00
2018-12-26T23:03:12.279Z,77.08
2018-12-26T23:05:42.006Z,76.62
2018-12-26T23:08:10.517Z,77.63
2018-12-26T23:10:39.854Z,77.42
2018-12-26T23:13:09.180Z,77.73
2018-12-26T23:15:38.484Z,76.39
2018-12-26T23:18:06.999Z,76.57
2018-12-26T23:20:35.541Z,76.11
2018-12-26T23:23:04.881Z,76.61
2018-12-26T23:25:34.215Z,76.20
2018-12-26T23:28:03.536Z,76.40
2018-12-26T23:30:32.910Z,75.55
2018-12-26T23:33:02.242Z,75.62
2018-12-26T23:35:31.870Z,77.19
2018-12-26T23:38:03.415Z,75.54
2018-12-26T23:40:32.721Z,76.40
2018-12-26T23:43:02.047Z,77.40
2018-12-26T23:45:31.371Z,75.57
2018-12-26T23:48:00.704Z,74.89
2018-12-26T23:50:30.117Z,74.85
2018-12-26T23:52:58.647Z,75.31
2018-12-26T23:55:27.175Z,74.46
2018-12-26T23:57:56.503Z,76.84
